Crittenden, Kentucky
Current Conditions -  °F | °C
As of 3:52 PM on Saturday 20 Dec 2014 (Local Time) from KCVG Reporting Station
Haze Haze  
Wind Chill: 32°   Ceiling: 1700
Heat Index: 32°   Visibility: 6mi
Dew Point: 24°   Wind: 3mph
Humidity: 73%   Direction: 360°N
Pressure: 30.24"   Gusts: NA
Location:  38.78°N, 84.61°W
Report Text: KCVG 202052Z 36003KT 6SM HZ OVC017 00/M04 A3024 RMK AO2 SLP247 T00001044 56008
Loading
Personal Weather Stations






























Interactive Weather Map New forecast layout! Learn more

10-Day Weather Forecast

Advertisements
Track Severe Weather on mobile